sensor_id;sensor_type;location;lat;lon;timestamp;pressure;altitude;pressure_sealevel;temperature;humidity
31299;BME280;17927;52.350;13.402;2022-12-22T00:00:40;100476.59;;;10.80;64.65
31299;BME280;17927;52.350;13.402;2022-12-22T00:03:24;100473.06;;;10.80;64.65
31299;BME280;17927;52.350;13.402;2022-12-22T00:06:08;100474.88;;;10.79;64.66
31299;BME280;17927;52.350;13.402;2022-12-22T00:08:52;100477.75;;;10.78;64.37
31299;BME280;17927;52.350;13.402;2022-12-22T00:11:36;100467.25;;;10.75;64.76
31299;BME280;17927;52.350;13.402;2022-12-22T00:14:20;100466.53;;;10.73;64.79
31299;BME280;17927;52.350;13.402;2022-12-22T00:17:17;100468.41;;;10.72;64.56
31299;BME280;17927;52.350;13.402;2022-12-22T00:20:13;100461.59;;;10.68;64.59
31299;BME280;17927;52.350;13.402;2022-12-22T00:22:57;100450.94;;;10.66;64.81
31299;BME280;17927;52.350;13.402;2022-12-22T00:25:41;100446.56;;;10.65;64.71
31299;BME280;17927;52.350;13.402;2022-12-22T00:28:25;100451.09;;;10.65;64.72
31299;BME280;17927;52.350;13.402;2022-12-22T00:31:10;100444.84;;;10.64;64.97
31299;BME280;17927;52.350;13.402;2022-12-22T00:33:54;100453.94;;;10.63;65.06
31299;BME280;17927;52.350;13.402;2022-12-22T00:36:38;100449.53;;;10.62;64.69
31299;BME280;17927;52.350;13.402;2022-12-22T00:39:23;100438.88;;;10.61;65.00
31299;BME280;17927;52.350;13.402;2022-12-22T00:42:07;100444.28;;;10.61;64.92
31299;BME280;17927;52.350;13.402;2022-12-22T00:44:50;100457.66;;;10.62;65.18
31299;BME280;17927;52.350;13.402;2022-12-22T00:47:34;100445.84;;;10.63;65.18
31299;BME280;17927;52.350;13.402;2022-12-22T00:50:21;100443.84;;;10.65;65.20
31299;BME280;17927;52.350;13.402;2022-12-22T00:53:07;100436.41;;;10.68;65.24
31299;BME280;17927;52.350;13.402;2022-12-22T00:55:52;100441.53;;;10.71;65.16
31299;BME280;17927;52.350;13.402;2022-12-22T00:58:36;100440.22;;;10.75;65.30
31299;BME280;17927;52.350;13.402;2022-12-22T01:01:20;100442.75;;;10.76;65.24
31299;BME280;17927;52.350;13.402;2022-12-22T01:04:04;100434.53;;;10.78;64.84
31299;BME280;17927;52.350;13.402;2022-12-22T01:06:48;100430.97;;;10.77;65.23
31299;BME280;17927;52.350;13.402;2022-12-22T01:09:32;100437.22;;;10.78;64.74
31299;BME280;17927;52.350;13.402;2022-12-22T01:12:24;100431.81;;;10.78;64.80
31299;BME280;17927;52.350;13.402;2022-12-22T01:15:15;100431.97;;;10.76;64.90
31299;BME280;17927;52.350;13.402;2022-12-22T01:17:59;100424.84;;;10.75;64.89
31299;BME280;17927;52.350;13.402;2022-12-22T01:20:43;100420.47;;;10.74;64.78
31299;BME280;17927;52.350;13.402;2022-12-22T01:23:27;100418.63;;;10.75;64.69
31299;BME280;17927;52.350;13.402;2022-12-22T01:26:11;100407.09;;;10.73;64.96
31299;BME280;17927;52.350;13.402;2022-12-22T01:28:55;100409.66;;;10.74;64.78
31299;BME280;17927;52.350;13.402;2022-12-22T01:31:40;100414.03;;;10.75;64.78
31299;BME280;17927;52.350;13.402;2022-12-22T01:34:24;100409.50;;;10.76;64.95
31299;BME280;17927;52.350;13.402;2022-12-22T01:37:08;100399.69;;;10.75;65.02
31299;BME280;17927;52.350;13.402;2022-12-22T01:39:52;100395.13;;;10.75;65.22
31299;BME280;17927;52.350;13.402;2022-12-22T01:42:36;100391.59;;;10.75;64.99
31299;BME280;17927;52.350;13.402;2022-12-22T01:45:24;100396.00;;;10.76;64.94
31299;BME280;17927;52.350;13.402;2022-12-22T01:48:10;100391.44;;;10.76;65.16
31299;BME280;17927;52.350;13.402;2022-12-22T01:50:55;100390.44;;;10.77;65.21
31299;BME280;17927;52.350;13.402;2022-12-22T01:53:40;100377.78;;;10.78;64.99
31299;BME280;17927;52.350;13.402;2022-12-22T01:56:27;100375.91;;;10.78;65.13
31299;BME280;17927;52.350;13.402;2022-12-22T01:59:11;100376.78;;;10.79;65.25
31299;BME280;17927;52.350;13.402;2022-12-22T02:01:57;100367.69;;;10.80;65.06
31299;BME280;17927;52.350;13.402;2022-12-22T02:04:44;100363.28;;;10.79;65.08
31299;BME280;17927;52.350;13.402;2022-12-22T02:10:48;100357.88;;;10.79;65.03
31299;BME280;17927;52.350;13.402;2022-12-22T02:22:55;100337.78;;;10.81;65.32
31299;BME280;17927;52.350;13.402;2022-12-22T02:25:52;100340.31;;;10.83;65.18
31299;BME280;17927;52.350;13.402;2022-12-22T02:28:38;100340.19;;;10.85;65.32
31299;BME280;17927;52.350;13.402;2022-12-22T02:31:22;100345.44;;;10.86;65.10
31299;BME280;17927;52.350;13.402;2022-12-22T02:34:13;100324.38;;;10.90;65.27
31299;BME280;17927;52.350;13.402;2022-12-22T02:37:51;100326.22;;;10.89;65.21
31299;BME280;17927;52.350;13.402;2022-12-22T02:43:22;100323.91;;;10.94;65.23
31299;BME280;17927;52.350;13.402;2022-12-22T02:46:21;100313.09;;;10.94;65.25
31299;BME280;17927;52.350;13.402;2022-12-22T02:49:15;100304.50;;;10.99;65.28
31299;BME280;17927;52.350;13.402;2022-12-22T02:52:24;100292.38;;;11.03;65.37
31299;BME280;17927;52.350;13.402;2022-12-22T02:55:11;100286.63;;;11.06;65.19
31299;BME280;17927;52.350;13.402;2022-12-22T02:57:58;100279.22;;;11.08;65.05
31299;BME280;17927;52.350;13.402;2022-12-22T03:00:41;100278.91;;;11.11;65.04
31299;BME280;17927;52.350;13.402;2022-12-22T03:03:25;100287.72;;;11.14;64.99
31299;BME280;17927;52.350;13.402;2022-12-22T03:06:09;100295.66;;;11.15;65.08
31299;BME280;17927;52.350;13.402;2022-12-22T03:08:53;100280.31;;;11.16;64.91
31299;BME280;17927;52.350;13.402;2022-12-22T03:11:37;100275.72;;;11.16;65.14
31299;BME280;17927;52.350;13.402;2022-12-22T03:14:21;100264.91;;;11.16;65.09
31299;BME280;17927;52.350;13.402;2022-12-22T03:17:05;100265.78;;;11.17;65.20
31299;BME280;17927;52.350;13.402;2022-12-22T03:19:49;100267.47;;;11.18;64.99
31299;BME280;17927;52.350;13.402;2022-12-22T03:22:33;100266.31;;;11.20;65.33
31299;BME280;17927;52.350;13.402;2022-12-22T03:25:17;100267.00;;;11.22;65.20
31299;BME280;17927;52.350;13.402;2022-12-22T03:28:03;100261.41;;;11.24;65.38
31299;BME280;17927;52.350;13.402;2022-12-22T03:30:28;100255.69;;;11.27;65.39
31299;BME280;17927;52.350;13.402;2022-12-22T03:32:54;100249.97;;;11.30;65.38
31299;BME280;17927;52.350;13.402;2022-12-22T03:35:19;100250.50;;;11.34;65.07
31299;BME280;17927;52.350;13.402;2022-12-22T03:37:44;100254.59;;;11.38;65.20
31299;BME280;17927;52.350;13.402;2022-12-22T03:40:09;100256.97;;;11.41;65.17
31299;BME280;17927;52.350;13.402;2022-12-22T03:42:35;100255.97;;;11.42;64.97
31299;BME280;17927;52.350;13.402;2022-12-22T03:45:19;100248.00;;;11.40;65.19
31299;BME280;17927;52.350;13.402;2022-12-22T03:48:03;100248.88;;;11.41;65.23
31299;BME280;17927;52.350;13.402;2022-12-22T03:50:28;100240.75;;;11.41;65.41
31299;BME280;17927;52.350;13.402;2022-12-22T03:52:53;100239.56;;;11.43;65.11
31299;BME280;17927;52.350;13.402;2022-12-22T03:55:19;100234.84;;;11.46;65.42
31299;BME280;17927;52.350;13.402;2022-12-22T03:57:44;100230.97;;;11.48;65.30
31299;BME280;17927;52.350;13.402;2022-12-22T04:00:09;100236.06;;;11.51;65.16
31299;BME280;17927;52.350;13.402;2022-12-22T04:02:35;100226.09;;;11.52;65.34
31299;BME280;17927;52.350;13.402;2022-12-22T04:05:00;100223.22;;;11.53;65.23
31299;BME280;17927;52.350;13.402;2022-12-22T04:07:25;100222.91;;;11.56;65.56
31299;BME280;17927;52.350;13.402;2022-12-22T04:09:51;100209.19;;;11.58;65.51
31299;BME280;17927;52.350;13.402;2022-12-22T04:12:34;100210.06;;;11.58;65.47
31299;BME280;17927;52.350;13.402;2022-12-22T04:15:18;100204.66;;;11.58;65.41
31299;BME280;17927;52.350;13.402;2022-12-22T04:17:43;100206.34;;;11.60;65.46
31299;BME280;17927;52.350;13.402;2022-12-22T04:20:09;100202.47;;;11.62;65.41
31299;BME280;17927;52.350;13.402;2022-12-22T04:22:34;100193.34;;;11.63;65.59
31299;BME280;17927;52.350;13.402;2022-12-22T04:24:59;100194.16;;;11.64;65.29
31299;BME280;17927;52.350;13.402;2022-12-22T04:27:24;100196.03;;;11.63;65.59
31299;BME280;17927;52.350;13.402;2022-12-22T04:29:50;100185.06;;;11.65;65.25
31299;BME280;17927;52.350;13.402;2022-12-22T04:32:15;100188.63;;;11.65;65.41
31299;BME280;17927;52.350;13.402;2022-12-22T04:34:40;100175.09;;;11.65;65.46
31299;BME280;17927;52.350;13.402;2022-12-22T04:37:05;100175.91;;;11.66;65.39
31299;BME280;17927;52.350;13.402;2022-12-22T04:39:31;100174.91;;;11.67;65.65
31299;BME280;17927;52.350;13.402;2022-12-22T04:41:56;100172.91;;;11.69;65.44
31299;BME280;17927;52.350;13.402;2022-12-22T04:44:21;100177.13;;;11.71;65.76
31299;BME280;17927;52.350;13.402;2022-12-22T04:46:46;100171.72;;;11.71;65.75
31299;BME280;17927;52.350;13.402;2022-12-22T04:49:11;100174.94;;;11.75;65.46
31299;BME280;17927;52.350;13.402;2022-12-22T04:51:37;100174.78;;;11.77;65.73
31299;BME280;17927;52.350;13.402;2022-12-22T04:54:02;100158.38;;;11.78;65.78
31299;BME280;17927;52.350;13.402;2022-12-22T04:56:27;100168.03;;;11.81;65.79
31299;BME280;17927;52.350;13.402;2022-12-22T04:58:53;100162.44;;;11.82;65.79
31299;BME280;17927;52.350;13.402;2022-12-22T05:01:18;100160.41;;;11.84;65.71
31299;BME280;17927;52.350;13.402;2022-12-22T05:03:43;100164.81;;;11.85;65.55
31299;BME280;17927;52.350;13.402;2022-12-22T05:06:09;100156.69;;;11.85;65.59
31299;BME280;17927;52.350;13.402;2022-12-22T05:08:35;100153.13;;;11.85;65.57
31299;BME280;17927;52.350;13.402;2022-12-22T05:11:01;100145.88;;;11.85;65.50
31299;BME280;17927;52.350;13.402;2022-12-22T05:13:27;100145.88;;;11.85;65.57
31299;BME280;17927;52.350;13.402;2022-12-22T05:15:52;100144.00;;;11.86;65.66
31299;BME280;17927;52.350;13.402;2022-12-22T05:18:17;100142.16;;;11.86;65.63
31299;BME280;17927;52.350;13.402;2022-12-22T05:20:43;100143.00;;;11.87;65.65
31299;BME280;17927;52.350;13.402;2022-12-22T05:23:08;100137.44;;;11.88;65.74
31299;BME280;17927;52.350;13.402;2022-12-22T05:25:33;100132.69;;;11.91;65.74
31299;BME280;17927;52.350;13.402;2022-12-22T05:27:58;100136.75;;;11.95;65.76
31299;BME280;17927;52.350;13.402;2022-12-22T05:30:24;100127.47;;;11.97;65.89
31299;BME280;17927;52.350;13.402;2022-12-22T05:32:49;100130.03;;;11.99;65.80
31299;BME280;17927;52.350;13.402;2022-12-22T05:35:15;100124.44;;;12.00;65.76
31299;BME280;17927;52.350;13.402;2022-12-22T05:37:40;100121.56;;;12.02;65.72
31299;BME280;17927;52.350;13.402;2022-12-22T05:40:06;100114.13;;;12.04;65.83
31299;BME280;17927;52.350;13.402;2022-12-22T05:42:32;100112.94;;;12.07;65.83
31299;BME280;17927;52.350;13.402;2022-12-22T05:45:15;100107.34;;;12.08;65.65
31299;BME280;17927;52.350;13.402;2022-12-22T05:47:46;100107.72;;;12.05;65.72
31299;BME280;17927;52.350;13.402;2022-12-22T05:50:13;100102.13;;;12.07;65.90
31299;BME280;17927;52.350;13.402;2022-12-22T05:52:39;100102.81;;;12.09;65.76
31299;BME280;17927;52.350;13.402;2022-12-22T05:55:05;100091.78;;;12.10;65.93
31299;BME280;17927;52.350;13.402;2022-12-22T05:57:30;100098.91;;;12.11;65.62
31299;BME280;17927;52.350;13.402;2022-12-22T05:59:55;100094.34;;;12.12;65.77
31299;BME280;17927;52.350;13.402;2022-12-22T06:02:21;100094.16;;;12.13;65.70
31299;BME280;17927;52.350;13.402;2022-12-22T06:04:46;100086.91;;;12.14;65.99
31299;BME280;17927;52.350;13.402;2022-12-22T06:07:11;100085.72;;;12.16;65.69
31299;BME280;17927;52.350;13.402;2022-12-22T06:09:37;100083.84;;;12.17;65.75
31299;BME280;17927;52.350;13.402;2022-12-22T06:12:03;100082.81;;;12.18;65.76
31299;BME280;17927;52.350;13.402;2022-12-22T06:14:28;100074.69;;;12.18;65.81
31299;BME280;17927;52.350;13.402;2022-12-22T06:16:53;100075.56;;;12.18;65.55
31299;BME280;17927;52.350;13.402;2022-12-22T06:19:18;100072.84;;;12.18;65.79
31299;BME280;17927;52.350;13.402;2022-12-22T06:21:44;100070.81;;;12.21;65.31
31299;BME280;17927;52.350;13.402;2022-12-22T06:24:09;100064.38;;;12.22;65.72
31299;BME280;17927;52.350;13.402;2022-12-22T06:26:34;100071.47;;;12.23;65.55
31299;BME280;17927;52.350;13.402;2022-12-22T06:28:59;100048.97;;;12.22;65.61
31299;BME280;17927;52.350;13.402;2022-12-22T06:31:25;100053.38;;;12.23;65.84
31299;BME280;17927;52.350;13.402;2022-12-22T06:33:50;100052.19;;;12.26;65.71
31299;BME280;17927;52.350;13.402;2022-12-22T06:36:15;100049.47;;;12.26;65.71
31299;BME280;17927;52.350;13.402;2022-12-22T06:38:41;100050.34;;;12.26;65.59
31299;BME280;17927;52.350;13.402;2022-12-22T06:41:06;100045.94;;;12.25;65.57
31299;BME280;17927;52.350;13.402;2022-12-22T06:43:31;100051.16;;;12.27;65.69
31299;BME280;17927;52.350;13.402;2022-12-22T06:45:57;100048.31;;;12.28;65.54
31299;BME280;17927;52.350;13.402;2022-12-22T06:48:22;100050.16;;;12.28;65.64
31299;BME280;17927;52.350;13.402;2022-12-22T06:50:47;100053.03;;;12.26;65.67
31299;BME280;17927;52.350;13.402;2022-12-22T06:53:13;100055.56;;;12.28;65.73
31299;BME280;17927;52.350;13.402;2022-12-22T06:55:38;100049.13;;;12.29;65.56
31299;BME280;17927;52.350;13.402;2022-12-22T06:58:04;100041.00;;;12.29;65.53
31299;BME280;17927;52.350;13.402;2022-12-22T07:00:30;100047.09;;;12.31;65.60
31299;BME280;17927;52.350;13.402;2022-12-22T07:02:55;100045.41;;;12.30;65.43
31299;BME280;17927;52.350;13.402;2022-12-22T07:05:20;100034.59;;;12.30;65.36
31299;BME280;17927;52.350;13.402;2022-12-22T07:07:47;100040.00;;;12.30;65.57
31299;BME280;17927;52.350;13.402;2022-12-22T07:10:13;100042.72;;;12.30;65.35
31299;BME280;17927;52.350;13.402;2022-12-22T07:12:38;100043.72;;;12.29;65.65
31299;BME280;17927;52.350;13.402;2022-12-22T07:15:03;100040.00;;;12.30;65.62
31299;BME280;17927;52.350;13.402;2022-12-22T07:17:29;100042.53;;;12.31;65.55
31299;BME280;17927;52.350;13.402;2022-12-22T07:19:54;100026.47;;;12.30;65.66
31299;BME280;17927;52.350;13.402;2022-12-22T07:22:19;100028.97;;;12.31;65.50
31299;BME280;17927;52.350;13.402;2022-12-22T07:24:45;100032.56;;;12.32;65.60
31299;BME280;17927;52.350;13.402;2022-12-22T07:27:10;100036.28;;;12.31;65.40
31299;BME280;17927;52.350;13.402;2022-12-22T07:29:35;100027.13;;;12.32;65.67
31299;BME280;17927;52.350;13.402;2022-12-22T07:32:01;100026.28;;;12.31;65.39
31299;BME280;17927;52.350;13.402;2022-12-22T07:34:26;100028.81;;;12.33;65.49
31299;BME280;17927;52.350;13.402;2022-12-22T07:36:51;100027.81;;;12.34;65.43
31299;BME280;17927;52.350;13.402;2022-12-22T07:39:17;100024.25;;;12.33;65.69
31299;BME280;17927;52.350;13.402;2022-12-22T07:41:42;100022.41;;;12.34;65.52
31299;BME280;17927;52.350;13.402;2022-12-22T07:44:26;100023.22;;;12.34;65.56
31299;BME280;17927;52.350;13.402;2022-12-22T07:46:51;100015.97;;;12.35;65.50
31299;BME280;17927;52.350;13.402;2022-12-22T07:49:16;100010.53;;;12.35;65.52
31299;BME280;17927;52.350;13.402;2022-12-22T07:52:00;100016.78;;;12.36;65.51
31299;BME280;17927;52.350;13.402;2022-12-22T07:54:26;100016.78;;;12.36;65.57
31299;BME280;17927;52.350;13.402;2022-12-22T07:56:52;100010.38;;;12.37;65.49
31299;BME280;17927;52.350;13.402;2022-12-22T07:59:18;100009.34;;;12.38;65.49
31299;BME280;17927;52.350;13.402;2022-12-22T08:01:43;100003.75;;;12.39;65.67
31299;BME280;17927;52.350;13.402;2022-12-22T08:04:10;99999.00;;;12.41;65.54
31299;BME280;17927;52.350;13.402;2022-12-22T08:06:35;100004.25;;;12.43;65.56
31299;BME280;17927;52.350;13.402;2022-12-22T08:09:02;99998.84;;;12.43;65.37
31299;BME280;17927;52.350;13.402;2022-12-22T08:11:28;99986.13;;;12.43;65.67
31299;BME280;17927;52.350;13.402;2022-12-22T08:13:53;100000.53;;;12.44;65.51
31299;BME280;17927;52.350;13.402;2022-12-22T08:16:18;99992.41;;;12.44;65.60
31299;BME280;17927;52.350;13.402;2022-12-22T08:18:45;99987.81;;;12.44;65.72
31299;BME280;17927;52.350;13.402;2022-12-22T08:21:10;99990.53;;;12.44;65.62
31299;BME280;17927;52.350;13.402;2022-12-22T08:23:36;99980.72;;;12.43;65.58
31299;BME280;17927;52.350;13.402;2022-12-22T08:26:06;99987.81;;;12.44;65.72
31299;BME280;17927;52.350;13.402;2022-12-22T08:28:38;99990.53;;;12.44;65.58
31299;BME280;17927;52.350;13.402;2022-12-22T08:31:05;99977.00;;;12.44;65.60
31299;BME280;17927;52.350;13.402;2022-12-22T08:33:30;99978.69;;;12.45;65.78
31299;BME280;17927;52.350;13.402;2022-12-22T08:35:56;99973.94;;;12.47;65.71
31299;BME280;17927;52.350;13.402;2022-12-22T08:38:22;99977.31;;;12.49;65.63
31299;BME280;17927;52.350;13.402;2022-12-22T08:40:47;99972.59;;;12.52;65.75
31299;BME280;17927;52.350;13.402;2022-12-22T08:43:14;99968.00;;;12.52;65.45
31299;BME280;17927;52.350;13.402;2022-12-22T08:45:43;99969.69;;;12.53;65.75
31299;BME280;17927;52.350;13.402;2022-12-22T08:48:09;99962.38;;;12.54;65.48
31299;BME280;17927;52.350;13.402;2022-12-22T08:50:35;99961.38;;;12.55;65.74
31299;BME280;17927;52.350;13.402;2022-12-22T08:53:05;99959.69;;;12.54;65.58
31299;BME280;17927;52.350;13.402;2022-12-22T08:55:31;99956.97;;;12.54;65.79
31299;BME280;17927;52.350;13.402;2022-12-22T08:57:56;99956.81;;;12.55;65.77
31299;BME280;17927;52.350;13.402;2022-12-22T09:00:22;99953.25;;;12.55;65.80
31299;BME280;17927;52.350;13.402;2022-12-22T09:02:48;99952.41;;;12.54;65.65
31299;BME280;17927;52.350;13.402;2022-12-22T09:05:13;99948.69;;;12.55;65.91
31299;BME280;17927;52.350;13.402;2022-12-22T09:07:39;99945.13;;;12.55;65.68
31299;BME280;17927;52.350;13.402;2022-12-22T09:10:06;99946.81;;;12.56;65.86
31299;BME280;17927;52.350;13.402;2022-12-22T09:12:31;99939.53;;;12.56;65.97
31299;BME280;17927;52.350;13.402;2022-12-22T09:14:57;99941.22;;;12.57;65.93
31299;BME280;17927;52.350;13.402;2022-12-22T09:17:22;99935.81;;;12.57;65.92
31299;BME280;17927;52.350;13.402;2022-12-22T09:19:48;99938.34;;;12.59;65.92
31299;BME280;17927;52.350;13.402;2022-12-22T09:22:13;99935.47;;;12.60;65.99
31299;BME280;17927;52.350;13.402;2022-12-22T09:24:38;99929.88;;;12.62;65.95
31299;BME280;17927;52.350;13.402;2022-12-22T09:27:04;99929.88;;;12.62;66.09
31299;BME280;17927;52.350;13.402;2022-12-22T09:29:30;99917.16;;;12.62;65.98
31299;BME280;17927;52.350;13.402;2022-12-22T09:31:56;99926.13;;;12.63;66.10
31299;BME280;17927;52.350;13.402;2022-12-22T09:34:21;99919.69;;;12.64;66.02
31299;BME280;17927;52.350;13.402;2022-12-22T09:36:46;99913.25;;;12.65;65.90
31299;BME280;17927;52.350;13.402;2022-12-22T09:39:12;99910.34;;;12.67;66.13
31299;BME280;17927;52.350;13.402;2022-12-22T09:41:53;99913.75;;;12.69;66.13
31299;BME280;17927;52.350;13.402;2022-12-22T09:44:25;99904.59;;;12.70;66.15
31299;BME280;17927;52.350;13.402;2022-12-22T09:46:53;99899.84;;;12.72;66.08
31299;BME280;17927;52.350;13.402;2022-12-22T09:49:20;99900.31;;;12.75;66.17
31299;BME280;17927;52.350;13.402;2022-12-22T09:51:49;99895.38;;;12.79;66.15
31299;BME280;17927;52.350;13.402;2022-12-22T09:54:16;99886.22;;;12.80;66.04
31299;BME280;17927;52.350;13.402;2022-12-22T09:56:42;99893.19;;;12.83;66.25
31299;BME280;17927;52.350;13.402;2022-12-22T09:59:18;99887.75;;;12.83;66.07
31299;BME280;17927;52.350;13.402;2022-12-22T10:01:55;99884.19;;;12.82;65.94
31299;BME280;17927;52.350;13.402;2022-12-22T10:05:02;99884.03;;;12.84;66.03
31299;BME280;17927;52.350;13.402;2022-12-22T10:07:36;99874.38;;;12.81;66.15
31299;BME280;17927;52.350;13.402;2022-12-22T10:12:29;99879.25;;;12.86;66.01
31299;BME280;17927;52.350;13.402;2022-12-22T10:14:55;99871.13;;;12.86;66.10
31299;BME280;17927;52.350;13.402;2022-12-22T10:19:50;99868.06;;;12.89;66.32
31299;BME280;17927;52.350;13.402;2022-12-22T10:22:31;99872.44;;;12.90;66.04
31299;BME280;17927;52.350;13.402;2022-12-22T10:25:00;99859.25;;;12.87;66.23
31299;BME280;17927;52.350;13.402;2022-12-22T10:27:29;99863.50;;;12.89;66.20
31299;BME280;17927;52.350;13.402;2022-12-22T10:30:19;99862.28;;;12.92;66.27
31299;BME280;17927;52.350;13.402;2022-12-22T10:33:06;99856.66;;;12.93;66.40
31299;BME280;17927;52.350;13.402;2022-12-22T10:35:42;99853.78;;;12.95;66.42
31299;BME280;17927;52.350;13.402;2022-12-22T10:38:21;99842.75;;;12.97;66.36
31299;BME280;17927;52.350;13.402;2022-12-22T10:40:51;99852.41;;;12.99;66.50
31299;BME280;17927;52.350;13.402;2022-12-22T10:43:18;99843.06;;;13.02;66.25
31299;BME280;17927;52.350;13.402;2022-12-22T10:45:48;99839.13;;;13.04;66.46
31299;BME280;17927;52.350;13.402;2022-12-22T10:48:14;99833.56;;;13.06;66.46
31299;BME280;17927;52.350;13.402;2022-12-22T10:50:45;99836.91;;;13.08;66.23
31299;BME280;17927;52.350;13.402;2022-12-22T10:53:11;99830.44;;;13.09;66.47
31299;BME280;17927;52.350;13.402;2022-12-22T10:55:36;99836.53;;;13.11;66.48
31299;BME280;17927;52.350;13.402;2022-12-22T11:00:36;99829.94;;;13.14;66.53
31299;BME280;17927;52.350;13.402;2022-12-22T11:03:03;99822.44;;;13.16;66.27
31299;BME280;17927;52.350;13.402;2022-12-22T11:05:28;99824.78;;;13.19;66.42
31299;BME280;17927;52.350;13.402;2022-12-22T11:07:55;99819.19;;;13.20;66.64
31299;BME280;17927;52.350;13.402;2022-12-22T11:10:42;99815.06;;;13.24;66.50
31299;BME280;17927;52.350;13.402;2022-12-22T11:13:17;99815.94;;;13.25;66.43
31299;BME280;17927;52.350;13.402;2022-12-22T11:16:08;99805.09;;;13.25;66.19
31299;BME280;17927;52.350;13.402;2022-12-22T11:18:54;99810.69;;;13.23;66.34
31299;BME280;17927;52.350;13.402;2022-12-22T11:21:42;99799.84;;;13.23;66.37
31299;BME280;17927;52.350;13.402;2022-12-22T11:24:26;99801.50;;;13.24;66.40
31299;BME280;17927;52.350;13.402;2022-12-22T11:30:02;99793.56;;;13.23;66.42
31299;BME280;17927;52.350;13.402;2022-12-22T11:38:06;99794.03;;;13.27;66.77
31299;BME280;17927;52.350;13.402;2022-12-22T11:40:48;99790.31;;;13.28;66.69
31299;BME280;17927;52.350;13.402;2022-12-22T11:43:41;99783.50;;;13.32;66.61
31299;BME280;17927;52.350;13.402;2022-12-22T11:46:31;99771.81;;;13.31;66.29
31299;BME280;17927;52.350;13.402;2022-12-22T11:49:10;99772.44;;;13.33;66.54
31299;BME280;17927;52.350;13.402;2022-12-22T12:00:13;99775.13;;;13.42;66.55
31299;BME280;17927;52.350;13.402;2022-12-22T12:06:04;99781.22;;;13.44;66.62
31299;BME280;17927;52.350;13.402;2022-12-22T12:08:50;99779.16;;;13.46;66.61
31299;BME280;17927;52.350;13.402;2022-12-22T12:11:20;99778.13;;;13.47;66.73
31299;BME280;17927;52.350;13.402;2022-12-22T12:16:56;99779.41;;;13.51;66.38
31299;BME280;17927;52.350;13.402;2022-12-22T12:21:57;99779.06;;;13.54;66.62
31299;BME280;17927;52.350;13.402;2022-12-22T12:24:56;99781.41;;;13.57;66.49
31299;BME280;17927;52.350;13.402;2022-12-22T12:27:40;99776.16;;;13.55;66.73
31299;BME280;17927;52.350;13.402;2022-12-22T12:30:15;99771.56;;;13.56;66.78
31299;BME280;17927;52.350;13.402;2022-12-22T12:32:48;99773.91;;;13.59;66.83
31299;BME280;17927;52.350;13.402;2022-12-22T12:35:45;99769.63;;;13.65;66.87
31299;BME280;17927;52.350;13.402;2022-12-22T12:38:28;99770.44;;;13.65;66.90
31299;BME280;17927;52.350;13.402;2022-12-22T12:41:55;99770.72;;;13.70;67.02
31299;BME280;17927;52.350;13.402;2022-12-22T12:44:26;99767.81;;;13.72;67.44
31299;BME280;17927;52.350;13.402;2022-12-22T12:46:55;99767.91;;;13.79;67.27
31299;BME280;17927;52.350;13.402;2022-12-22T12:51:58;99766.78;;;13.88;67.29
31299;BME280;17927;52.350;13.402;2022-12-22T12:57:09;99776.88;;;13.94;67.10
31299;BME280;17927;52.350;13.402;2022-12-22T13:08:10;99779.44;;;13.96;66.78
31299;BME280;17927;52.350;13.402;2022-12-22T13:10:44;99780.66;;;13.93;66.83
31299;BME280;17927;52.350;13.402;2022-12-22T13:23:58;99785.22;;;13.93;66.70
31299;BME280;17927;52.350;13.402;2022-12-22T13:26:30;99785.22;;;13.93;66.80
31299;BME280;17927;52.350;13.402;2022-12-22T13:28:56;99798.41;;;13.81;66.91
31299;BME280;17927;52.350;13.402;2022-12-22T13:31:35;99797.03;;;13.85;67.00
31299;BME280;17927;52.350;13.402;2022-12-22T13:34:20;99802.91;;;13.89;66.82
31299;BME280;17927;52.350;13.402;2022-12-22T13:36:49;99810.03;;;13.90;66.92
31299;BME280;17927;52.350;13.402;2022-12-22T13:39:15;99806.13;;;13.92;66.69
31299;BME280;17927;52.350;13.402;2022-12-22T13:41:42;99807.81;;;13.93;66.83
31299;BME280;17927;52.350;13.402;2022-12-22T13:44:13;99813.22;;;13.93;66.64
31299;BME280;17927;52.350;13.402;2022-12-22T13:46:40;99805.09;;;13.93;66.55
31299;BME280;17927;52.350;13.402;2022-12-22T13:49:09;99809.47;;;13.94;66.37
31299;BME280;17927;52.350;13.402;2022-12-22T13:51:37;99816.13;;;13.92;66.59
31299;BME280;17927;52.350;13.402;2022-12-22T13:54:15;99814.25;;;13.92;66.47
31299;BME280;17927;52.350;13.402;2022-12-22T13:56:47;99827.84;;;13.92;66.54
31299;BME280;17927;52.350;13.402;2022-12-22T13:59:33;99827.84;;;13.92;66.61
31299;BME280;17927;52.350;13.402;2022-12-22T14:02:20;99828.88;;;13.91;66.46
31299;BME280;17927;52.350;13.402;2022-12-22T14:05:07;99830.53;;;13.92;66.54
31299;BME280;17927;52.350;13.402;2022-12-22T14:07:33;99837.00;;;13.91;66.68
31299;BME280;17927;52.350;13.402;2022-12-22T14:09:59;99838.50;;;13.94;66.52
31299;BME280;17927;52.350;13.402;2022-12-22T14:12:27;99835.78;;;13.94;66.44
31299;BME280;17927;52.350;13.402;2022-12-22T14:14:55;99833.88;;;13.94;66.47
31299;BME280;17927;52.350;13.402;2022-12-22T14:17:22;99834.75;;;13.95;66.69
31299;BME280;17927;52.350;13.402;2022-12-22T14:19:49;99838.28;;;13.95;66.41
31299;BME280;17927;52.350;13.402;2022-12-22T14:22:19;99847.47;;;13.94;66.48
31299;BME280;17927;52.350;13.402;2022-12-22T14:24:51;99857.50;;;13.94;66.63
31299;BME280;17927;52.350;13.402;2022-12-22T14:27:36;99853.75;;;13.95;66.57